<?xml version="1.0" encoding="UTF-8" standalone="no" ?>
<gpx xmlns="http://www.topografix.com/GPX/1/1" xmlns:xsi="http://www.w3.org/2001/XMLSchema-instance" xsi:schemaLocation="http://www.topografix.com/GPX/1/1 http://www.topografix.com/GPX/1/1/gpx.xsd" version="1.1" creator="VisuGPX - https://www.visugpx.com">
  <metadata>
    <name>Turquie_100points</name>
  </metadata>
  <trk>
    <name><![CDATA[Tour d'Europe: étape 539]]></name>
    <extensions>
      <line xmlns="http://www.topografix.com/GPX/gpx_style/0/2">
        <color>008888</color>
        <width>4</width>
      </line>
    </extensions>
    <trkseg>
      <trkpt lat="38.71573" lon="35.48437">
        <ele>1095.953276</ele>
        <time>2021-12-19T06:33:28.727Z</time>
      </trkpt>
      <trkpt lat="38.71611" lon="35.48327">
        <ele>1095.923002</ele>
        <time>2021-12-19T06:43:52.358Z</time>
      </trkpt>
      <trkpt lat="38.71574" lon="35.48011">
        <ele>1094.289988</ele>
        <time>2021-12-19T06:45:48.341Z</time>
      </trkpt>
      <trkpt lat="38.71552" lon="35.47742">
        <ele>1095.124207</ele>
        <time>2021-12-19T06:46:28.340Z</time>
      </trkpt>
      <trkpt lat="38.71489" lon="35.47463">
        <ele>1107.233978</ele>
        <time>2021-12-19T06:47:17.368Z</time>
      </trkpt>
      <trkpt lat="38.71392" lon="35.47209">
        <ele>1098.993773</ele>
        <time>2021-12-19T06:48:19.348Z</time>
      </trkpt>
      <trkpt lat="38.71408" lon="35.46933">
        <ele>1097.063663</ele>
        <time>2021-12-19T06:49:11.343Z</time>
      </trkpt>
      <trkpt lat="38.71581" lon="35.46734">
        <ele>1109.745112</ele>
        <time>2021-12-19T06:50:04.357Z</time>
      </trkpt>
      <trkpt lat="38.7177" lon="35.46533">
        <ele>1109.083676</ele>
        <time>2021-12-19T06:51:39.342Z</time>
      </trkpt>
      <trkpt lat="38.71956" lon="35.46349">
        <ele>1095.815933</ele>
        <time>2021-12-19T06:52:33.355Z</time>
      </trkpt>
      <trkpt lat="38.71978" lon="35.46133">
        <ele>1089.889569</ele>
        <time>2021-12-19T06:53:50.357Z</time>
      </trkpt>
      <trkpt lat="38.71964" lon="35.45861">
        <ele>1094.66445</ele>
        <time>2021-12-19T06:54:46.351Z</time>
      </trkpt>
      <trkpt lat="38.71964" lon="35.45542">
        <ele>1097.016984</ele>
        <time>2021-12-19T06:55:49.367Z</time>
      </trkpt>
      <trkpt lat="38.71966" lon="35.45264">
        <ele>1096.723717</ele>
        <time>2021-12-19T06:56:49.359Z</time>
      </trkpt>
      <trkpt lat="38.72169" lon="35.45146">
        <ele>1092.499377</ele>
        <time>2021-12-19T06:57:52.347Z</time>
      </trkpt>
      <trkpt lat="38.72382" lon="35.4511">
        <ele>1087.299924</ele>
        <time>2021-12-19T06:58:40.357Z</time>
      </trkpt>
      <trkpt lat="38.72505" lon="35.44898">
        <ele>1096.126648</ele>
        <time>2021-12-19T06:59:42.371Z</time>
      </trkpt>
      <trkpt lat="38.72602" lon="35.44669">
        <ele>1106.811629</ele>
        <time>2021-12-19T07:00:52.335Z</time>
      </trkpt>
      <trkpt lat="38.72731" lon="35.44421">
        <ele>1116.352652</ele>
        <time>2021-12-19T07:01:55.350Z</time>
      </trkpt>
      <trkpt lat="38.72914" lon="35.44255">
        <ele>1103.431225</ele>
        <time>2021-12-19T07:04:24.389Z</time>
      </trkpt>
      <trkpt lat="38.7301" lon="35.44024">
        <ele>1102.266843</ele>
        <time>2021-12-19T07:05:27.360Z</time>
      </trkpt>
      <trkpt lat="38.7313" lon="35.43768">
        <ele>1107.313183</ele>
        <time>2021-12-19T07:06:26.342Z</time>
      </trkpt>
      <trkpt lat="38.73228" lon="35.43542">
        <ele>1108.930663</ele>
        <time>2021-12-19T07:07:10.345Z</time>
      </trkpt>
      <trkpt lat="38.73319" lon="35.43255">
        <ele>1111.538576</ele>
        <time>2021-12-19T07:08:06.346Z</time>
      </trkpt>
      <trkpt lat="38.73324" lon="35.42962">
        <ele>1101.873862</ele>
        <time>2021-12-19T07:09:07.358Z</time>
      </trkpt>
      <trkpt lat="38.73291" lon="35.42698">
        <ele>1104.454402</ele>
        <time>2021-12-19T07:10:13.350Z</time>
      </trkpt>
      <trkpt lat="38.73356" lon="35.42442">
        <ele>1111.617308</ele>
        <time>2021-12-19T07:11:13.347Z</time>
      </trkpt>
      <trkpt lat="38.73458" lon="35.42194">
        <ele>1108.181503</ele>
        <time>2021-12-19T07:11:59.365Z</time>
      </trkpt>
      <trkpt lat="38.73559" lon="35.41956">
        <ele>1098.545634</ele>
        <time>2021-12-19T07:12:51.349Z</time>
      </trkpt>
      <trkpt lat="38.73662" lon="35.41706">
        <ele>1101.724388</ele>
        <time>2021-12-19T07:13:38.349Z</time>
      </trkpt>
      <trkpt lat="38.73763" lon="35.41478">
        <ele>1101.379348</ele>
        <time>2021-12-19T07:14:18.351Z</time>
      </trkpt>
      <trkpt lat="38.73879" lon="35.4124">
        <ele>1098.028092</ele>
        <time>2021-12-19T07:15:00.345Z</time>
      </trkpt>
      <trkpt lat="38.73996" lon="35.41015">
        <ele>1094.932605</ele>
        <time>2021-12-19T07:15:47.342Z</time>
      </trkpt>
      <trkpt lat="38.74026" lon="35.40751">
        <ele>1092.296135</ele>
        <time>2021-12-19T07:16:34.392Z</time>
      </trkpt>
      <trkpt lat="38.74057" lon="35.40462">
        <ele>1089.843656</ele>
        <time>2021-12-19T07:17:28.367Z</time>
      </trkpt>
      <trkpt lat="38.74183" lon="35.40226">
        <ele>1094.531145</ele>
        <time>2021-12-19T07:18:32.402Z</time>
      </trkpt>
      <trkpt lat="38.74257" lon="35.39987">
        <ele>1091.705902</ele>
        <time>2021-12-19T07:19:50.401Z</time>
      </trkpt>
      <trkpt lat="38.74321" lon="35.39698">
        <ele>1099.26292</ele>
        <time>2021-12-19T07:20:51.353Z</time>
      </trkpt>
      <trkpt lat="38.7439" lon="35.39424">
        <ele>1107.315809</ele>
        <time>2021-12-19T07:21:45.376Z</time>
      </trkpt>
      <trkpt lat="38.74462" lon="35.39162">
        <ele>1098.831722</ele>
        <time>2021-12-19T07:22:31.378Z</time>
      </trkpt>
      <trkpt lat="38.7432" lon="35.39031">
        <ele>1092.259745</ele>
        <time>2021-12-19T07:23:41.356Z</time>
      </trkpt>
      <trkpt lat="38.74129" lon="35.38921">
        <ele>1102.134946</ele>
        <time>2021-12-19T07:25:05.367Z</time>
      </trkpt>
      <trkpt lat="38.73948" lon="35.38859">
        <ele>1116.242566</ele>
        <time>2021-12-19T07:26:46.365Z</time>
      </trkpt>
      <trkpt lat="38.73882" lon="35.38582">
        <ele>1125.708423</ele>
        <time>2021-12-19T07:27:42.362Z</time>
      </trkpt>
      <trkpt lat="38.73818" lon="35.38325">
        <ele>1115.065234</ele>
        <time>2021-12-19T07:28:22.354Z</time>
      </trkpt>
      <trkpt lat="38.73752" lon="35.38036">
        <ele>1111.41666</ele>
        <time>2021-12-19T07:29:10.393Z</time>
      </trkpt>
      <trkpt lat="38.7382" lon="35.37711">
        <ele>1102.042392</ele>
        <time>2021-12-19T07:29:50.362Z</time>
      </trkpt>
      <trkpt lat="38.73904" lon="35.37383">
        <ele>1091.723493</ele>
        <time>2021-12-19T07:30:32.356Z</time>
      </trkpt>
      <trkpt lat="38.73996" lon="35.37153">
        <ele>1091.425247</ele>
        <time>2021-12-19T07:31:17.403Z</time>
      </trkpt>
      <trkpt lat="38.7403" lon="35.3693">
        <ele>1083.976623</ele>
        <time>2021-12-19T07:32:08.371Z</time>
      </trkpt>
      <trkpt lat="38.74" lon="35.36625">
        <ele>1076.187935</ele>
        <time>2021-12-19T07:32:48.347Z</time>
      </trkpt>
      <trkpt lat="38.73969" lon="35.36322">
        <ele>1074.289175</ele>
        <time>2021-12-19T07:33:39.370Z</time>
      </trkpt>
      <trkpt lat="38.73943" lon="35.36071">
        <ele>1073.42936</ele>
        <time>2021-12-19T07:34:21.359Z</time>
      </trkpt>
      <trkpt lat="38.73908" lon="35.35769">
        <ele>1065.689636</ele>
        <time>2021-12-19T07:42:12.389Z</time>
      </trkpt>
      <trkpt lat="38.73881" lon="35.35518">
        <ele>1055.123623</ele>
        <time>2021-12-19T07:43:16.352Z</time>
      </trkpt>
      <trkpt lat="38.73863" lon="35.35249">
        <ele>1058.664538</ele>
        <time>2021-12-19T07:44:20.353Z</time>
      </trkpt>
      <trkpt lat="38.73846" lon="35.34973">
        <ele>1063.785875</ele>
        <time>2021-12-19T07:45:20.336Z</time>
      </trkpt>
      <trkpt lat="38.74022" lon="35.34813">
        <ele>1071.781594</ele>
        <time>2021-12-19T07:46:19.399Z</time>
      </trkpt>
      <trkpt lat="38.74261" lon="35.34729">
        <ele>1067.375441</ele>
        <time>2021-12-19T07:47:22.365Z</time>
      </trkpt>
      <trkpt lat="38.74406" lon="35.34562">
        <ele>1059.506745</ele>
        <time>2021-12-19T07:48:22.363Z</time>
      </trkpt>
      <trkpt lat="38.7444" lon="35.3428">
        <ele>1058.458139</ele>
        <time>2021-12-19T07:49:25.367Z</time>
      </trkpt>
      <trkpt lat="38.74468" lon="35.34008">
        <ele>1060.587152</ele>
        <time>2021-12-19T07:50:25.361Z</time>
      </trkpt>
      <trkpt lat="38.74506" lon="35.33715">
        <ele>1063.808854</ele>
        <time>2021-12-19T07:51:28.374Z</time>
      </trkpt>
      <trkpt lat="38.74545" lon="35.33447">
        <ele>1057.863278</ele>
        <time>2021-12-19T07:52:28.368Z</time>
      </trkpt>
      <trkpt lat="38.74596" lon="35.33165">
        <ele>1054.033899</ele>
        <time>2021-12-19T07:53:31.355Z</time>
      </trkpt>
      <trkpt lat="38.74733" lon="35.33052">
        <ele>1060.326168</ele>
        <time>2021-12-19T07:54:31.367Z</time>
      </trkpt>
      <trkpt lat="38.74936" lon="35.33046">
        <ele>1059.10683</ele>
        <time>2021-12-19T07:55:34.362Z</time>
      </trkpt>
      <trkpt lat="38.75138" lon="35.33022">
        <ele>1057.945491</ele>
        <time>2021-12-19T07:56:34.375Z</time>
      </trkpt>
      <trkpt lat="38.75252" lon="35.32921">
        <ele>1056.044059</ele>
        <time>2021-12-19T07:57:54.374Z</time>
      </trkpt>
      <trkpt lat="38.75223" lon="35.3264">
        <ele>1051.377199</ele>
        <time>2021-12-19T07:58:54.346Z</time>
      </trkpt>
      <trkpt lat="38.75201" lon="35.32348">
        <ele>1048.868027</ele>
        <time>2021-12-19T07:59:57.366Z</time>
      </trkpt>
      <trkpt lat="38.75179" lon="35.32074">
        <ele>1050.042304</ele>
        <time>2021-12-19T08:00:57.354Z</time>
      </trkpt>
      <trkpt lat="38.75148" lon="35.31794">
        <ele>1049.238848</ele>
        <time>2021-12-19T08:02:12.411Z</time>
      </trkpt>
      <trkpt lat="38.75111" lon="35.31538">
        <ele>1053.224514</ele>
        <time>2021-12-19T08:03:32.367Z</time>
      </trkpt>
      <trkpt lat="38.75123" lon="35.31261">
        <ele>1062.543756</ele>
        <time>2021-12-19T08:05:01.356Z</time>
      </trkpt>
      <trkpt lat="38.7514" lon="35.31033">
        <ele>1069.062083</ele>
        <time>2021-12-19T08:05:54.372Z</time>
      </trkpt>
      <trkpt lat="38.74999" lon="35.30778">
        <ele>1072.458185</ele>
        <time>2021-12-19T08:06:50.371Z</time>
      </trkpt>
      <trkpt lat="38.74828" lon="35.30601">
        <ele>1074.193193</ele>
        <time>2021-12-19T08:07:39.372Z</time>
      </trkpt>
      <trkpt lat="38.74658" lon="35.30373">
        <ele>1077.106123</ele>
        <time>2021-12-19T08:08:42.353Z</time>
      </trkpt>
      <trkpt lat="38.74507" lon="35.30162">
        <ele>1072.296136</ele>
        <time>2021-12-19T08:09:42.380Z</time>
      </trkpt>
      <trkpt lat="38.74356" lon="35.29955">
        <ele>1070.476707</ele>
        <time>2021-12-19T08:10:45.373Z</time>
      </trkpt>
      <trkpt lat="38.74205" lon="35.29754">
        <ele>1067.785123</ele>
        <time>2021-12-19T08:11:45.369Z</time>
      </trkpt>
      <trkpt lat="38.74049" lon="35.29543">
        <ele>1071.402921</ele>
        <time>2021-12-19T08:12:48.365Z</time>
      </trkpt>
      <trkpt lat="38.73904" lon="35.29348">
        <ele>1070.532607</ele>
        <time>2021-12-19T08:13:48.407Z</time>
      </trkpt>
      <trkpt lat="38.73758" lon="35.29146">
        <ele>1076.89233</ele>
        <time>2021-12-19T08:14:52.387Z</time>
      </trkpt>
      <trkpt lat="38.73615" lon="35.2896">
        <ele>1080.433632</ele>
        <time>2021-12-19T08:15:54.412Z</time>
      </trkpt>
      <trkpt lat="38.73457" lon="35.28752">
        <ele>1078.194312</ele>
        <time>2021-12-19T08:16:57.412Z</time>
      </trkpt>
      <trkpt lat="38.73299" lon="35.28566">
        <ele>1070.516215</ele>
        <time>2021-12-19T08:17:44.392Z</time>
      </trkpt>
      <trkpt lat="38.73128" lon="35.28382">
        <ele>1064.769601</ele>
        <time>2021-12-19T08:18:30.374Z</time>
      </trkpt>
      <trkpt lat="38.72974" lon="35.28218">
        <ele>1066.314884</ele>
        <time>2021-12-19T08:19:11.389Z</time>
      </trkpt>
      <trkpt lat="38.72807" lon="35.28042">
        <ele>1067.266805</ele>
        <time>2021-12-19T08:19:57.355Z</time>
      </trkpt>
      <trkpt lat="38.72659" lon="35.27885">
        <ele>1068.011015</ele>
        <time>2021-12-19T08:20:37.373Z</time>
      </trkpt>
      <trkpt lat="38.7247" lon="35.27686">
        <ele>1068.349704</ele>
        <time>2021-12-19T08:21:33.374Z</time>
      </trkpt>
      <trkpt lat="38.72276" lon="35.27476">
        <ele>1069.274405</ele>
        <time>2021-12-19T08:22:33.386Z</time>
      </trkpt>
      <trkpt lat="38.72076" lon="35.27273">
        <ele>1069.131577</ele>
        <time>2021-12-19T08:23:32.392Z</time>
      </trkpt>
      <trkpt lat="38.71871" lon="35.27053">
        <ele>1065.334111</ele>
        <time>2021-12-19T08:24:35.382Z</time>
      </trkpt>
      <trkpt lat="38.71681" lon="35.26848">
        <ele>1066.202444</ele>
        <time>2021-12-19T08:25:34.372Z</time>
      </trkpt>
      <trkpt lat="38.715" lon="35.26669">
        <ele>1064.670716</ele>
        <time>2021-12-19T08:26:25.380Z</time>
      </trkpt>
      <trkpt lat="38.7132" lon="35.26487">
        <ele>1062.96942</ele>
        <time>2021-12-19T08:27:16.371Z</time>
      </trkpt>
      <trkpt lat="38.71107" lon="35.26271">
        <ele>1062.950532</ele>
        <time>2021-12-19T08:28:19.391Z</time>
      </trkpt>
      <trkpt lat="38.70924" lon="35.2609">
        <ele>1062.944053</ele>
        <time>2021-12-19T08:29:11.378Z</time>
      </trkpt>
      <trkpt lat="38.7073" lon="35.25904">
        <ele>1065.767167</ele>
        <time>2021-12-19T08:30:05.415Z</time>
      </trkpt>
      <trkpt lat="38.70535" lon="35.25712">
        <ele>1067.831308</ele>
        <time>2021-12-19T08:31:02.374Z</time>
      </trkpt>
      <trkpt lat="38.70333" lon="35.25513">
        <ele>1066.469122</ele>
        <time>2021-12-19T08:32:03.377Z</time>
      </trkpt>
      <trkpt lat="38.70158" lon="35.25343">
        <ele>1071.270031</ele>
        <time>2021-12-19T08:33:03.391Z</time>
      </trkpt>
      <trkpt lat="38.7006" lon="35.25178">
        <ele>1078.296765</ele>
        <time>2021-12-19T08:44:13.229Z</time>
      </trkpt>
      <trkpt lat="38.69903" lon="35.25092">
        <ele>1078.139944</ele>
        <time>2021-12-19T08:58:32.414Z</time>
      </trkpt>
      <trkpt lat="38.69734" lon="35.24906">
        <ele>1080.604066</ele>
        <time>2021-12-19T09:02:48.425Z</time>
      </trkpt>
      <trkpt lat="38.69536" lon="35.24724">
        <ele>1088.826363</ele>
        <time>2021-12-19T09:25:49.965Z</time>
      </trkpt>
      <trkpt lat="38.69359" lon="35.24556">
        <ele>1092.97721</ele>
        <time>2021-12-19T09:27:04.978Z</time>
      </trkpt>
      <trkpt lat="38.69189" lon="35.24392">
        <ele>1090.625859</ele>
        <time>2021-12-19T09:28:09.005Z</time>
      </trkpt>
      <trkpt lat="38.69011" lon="35.2422">
        <ele>1092.686755</ele>
        <time>2021-12-19T09:29:11.985Z</time>
      </trkpt>
      <trkpt lat="38.68829" lon="35.24063">
        <ele>1090.883122</ele>
        <time>2021-12-19T09:30:12.002Z</time>
      </trkpt>
      <trkpt lat="38.68637" lon="35.23899">
        <ele>1090.110249</ele>
        <time>2021-12-19T09:31:14.976Z</time>
      </trkpt>
      <trkpt lat="38.68462" lon="35.2375">
        <ele>1091.484578</ele>
        <time>2021-12-19T09:32:14.957Z</time>
      </trkpt>
      <trkpt lat="38.68268" lon="35.23589">
        <ele>1088.984887</ele>
        <time>2021-12-19T09:33:17.964Z</time>
      </trkpt>
      <trkpt lat="38.68147" lon="35.23368">
        <ele>1093.507871</ele>
        <time>2021-12-19T09:34:36.002Z</time>
      </trkpt>
      <trkpt lat="38.68096" lon="35.23105">
        <ele>1102.669636</ele>
        <time>2021-12-19T09:36:19.965Z</time>
      </trkpt>
      <trkpt lat="38.68095" lon="35.22851">
        <ele>1108.976572</ele>
        <time>2021-12-19T09:38:00.984Z</time>
      </trkpt>
      <trkpt lat="38.68095" lon="35.22581">
        <ele>1116.79284</ele>
        <time>2021-12-19T09:39:46.988Z</time>
      </trkpt>
      <trkpt lat="38.68096" lon="35.22327">
        <ele>1126.947753</ele>
        <time>2021-12-19T09:41:45.984Z</time>
      </trkpt>
      <trkpt lat="38.68098" lon="35.22059">
        <ele>1134.23514</ele>
        <time>2021-12-19T09:43:55.967Z</time>
      </trkpt>
      <trkpt lat="38.681" lon="35.21798">
        <ele>1136.535163</ele>
        <time>2021-12-19T09:48:43.973Z</time>
      </trkpt>
      <trkpt lat="38.68101" lon="35.21534">
        <ele>1139.940343</ele>
        <time>2021-12-19T09:50:07.975Z</time>
      </trkpt>
      <trkpt lat="38.68103" lon="35.21277">
        <ele>1146.492771</ele>
        <time>2021-12-19T09:51:37.983Z</time>
      </trkpt>
      <trkpt lat="38.68105" lon="35.21015">
        <ele>1154.382977</ele>
        <time>2021-12-19T09:53:26.009Z</time>
      </trkpt>
      <trkpt lat="38.68105" lon="35.20763">
        <ele>1163.980015</ele>
        <time>2021-12-19T09:55:20.977Z</time>
      </trkpt>
      <trkpt lat="38.68109" lon="35.20501">
        <ele>1175.2668</ele>
        <time>2021-12-19T09:57:29.980Z</time>
      </trkpt>
      <trkpt lat="38.68127" lon="35.20256">
        <ele>1188.809543</ele>
        <time>2021-12-19T09:59:32.978Z</time>
      </trkpt>
      <trkpt lat="38.68201" lon="35.20013">
        <ele>1202.838464</ele>
        <time>2021-12-19T10:01:47.983Z</time>
      </trkpt>
      <trkpt lat="38.68278" lon="35.19785">
        <ele>1212.579284</ele>
        <time>2021-12-19T10:03:53.006Z</time>
      </trkpt>
      <trkpt lat="38.68356" lon="35.19556">
        <ele>1220.411426</ele>
        <time>2021-12-19T10:05:52.967Z</time>
      </trkpt>
      <trkpt lat="38.68438" lon="35.1931">
        <ele>1230.357182</ele>
        <time>2021-12-19T10:07:57.976Z</time>
      </trkpt>
      <trkpt lat="38.68514" lon="35.19077">
        <ele>1236.622621</ele>
        <time>2021-12-19T10:09:49.984Z</time>
      </trkpt>
      <trkpt lat="38.686" lon="35.18813">
        <ele>1240.794148</ele>
        <time>2021-12-19T10:16:40.021Z</time>
      </trkpt>
      <trkpt lat="38.68696" lon="35.1859">
        <ele>1242.969237</ele>
        <time>2021-12-19T10:18:08.001Z</time>
      </trkpt>
      <trkpt lat="38.68828" lon="35.18377">
        <ele>1254.075325</ele>
        <time>2021-12-19T10:19:33.984Z</time>
      </trkpt>
      <trkpt lat="38.68957" lon="35.18181">
        <ele>1254.687864</ele>
        <time>2021-12-19T10:20:55.005Z</time>
      </trkpt>
      <trkpt lat="38.69092" lon="35.1797">
        <ele>1266.0137</ele>
        <time>2021-12-19T10:22:26.004Z</time>
      </trkpt>
      <trkpt lat="38.6922" lon="35.17775">
        <ele>1268.783983</ele>
        <time>2021-12-19T10:23:49.991Z</time>
      </trkpt>
      <trkpt lat="38.69356" lon="35.17563">
        <ele>1275.480822</ele>
        <time>2021-12-19T10:25:21.993Z</time>
      </trkpt>
      <trkpt lat="38.69484" lon="35.17358">
        <ele>1278.952929</ele>
        <time>2021-12-19T10:26:33.034Z</time>
      </trkpt>
      <trkpt lat="38.69578" lon="35.17099">
        <ele>1273.504825</ele>
        <time>2021-12-19T10:27:21.989Z</time>
      </trkpt>
      <trkpt lat="38.696" lon="35.16836">
        <ele>1268.977387</ele>
        <time>2021-12-19T10:28:02.013Z</time>
      </trkpt>
      <trkpt lat="38.69594" lon="35.16548">
        <ele>1268.65447</ele>
        <time>2021-12-19T10:28:49.978Z</time>
      </trkpt>
      <trkpt lat="38.6959" lon="35.1626">
        <ele>1265.699303</ele>
        <time>2021-12-19T10:29:42.001Z</time>
      </trkpt>
      <trkpt lat="38.69585" lon="35.15937">
        <ele>1265.613542</ele>
        <time>2021-12-19T10:30:41.995Z</time>
      </trkpt>
      <trkpt lat="38.69581" lon="35.15629">
        <ele>1265.91339</ele>
        <time>2021-12-19T10:31:38.018Z</time>
      </trkpt>
      <trkpt lat="38.69575" lon="35.15315">
        <ele>1262.75886</ele>
        <time>2021-12-19T10:32:34.995Z</time>
      </trkpt>
      <trkpt lat="38.69569" lon="35.15039">
        <ele>1259.85527</ele>
        <time>2021-12-19T10:33:24.004Z</time>
      </trkpt>
      <trkpt lat="38.69564" lon="35.14744">
        <ele>1261.171289</ele>
        <time>2021-12-19T10:34:15.004Z</time>
      </trkpt>
      <trkpt lat="38.6956" lon="35.14457">
        <ele>1261.338203</ele>
        <time>2021-12-19T10:35:09.003Z</time>
      </trkpt>
      <trkpt lat="38.69554" lon="35.14178">
        <ele>1264.528528</ele>
        <time>2021-12-19T10:36:15.995Z</time>
      </trkpt>
      <trkpt lat="38.6955" lon="35.13918">
        <ele>1266.867648</ele>
        <time>2021-12-19T10:37:19.980Z</time>
      </trkpt>
      <trkpt lat="38.69546" lon="35.13636">
        <ele>1264.668345</ele>
        <time>2021-12-19T10:38:23.999Z</time>
      </trkpt>
      <trkpt lat="38.6954" lon="35.13365">
        <ele>1265.530127</ele>
        <time>2021-12-19T10:39:24.028Z</time>
      </trkpt>
      <trkpt lat="38.69535" lon="35.13059">
        <ele>1262.966575</ele>
        <time>2021-12-19T10:40:27.030Z</time>
      </trkpt>
      <trkpt lat="38.69533" lon="35.12792">
        <ele>1264.197821</ele>
        <time>2021-12-19T10:41:29.990Z</time>
      </trkpt>
      <trkpt lat="38.69524" lon="35.12504">
        <ele>1267.38826</ele>
        <time>2021-12-19T10:42:49.977Z</time>
      </trkpt>
      <trkpt lat="38.69528" lon="35.12224">
        <ele>1268.659938</ele>
        <time>2021-12-19T10:44:08.997Z</time>
      </trkpt>
      <trkpt lat="38.69556" lon="35.11951">
        <ele>1271.009306</ele>
        <time>2021-12-19T10:45:14.997Z</time>
      </trkpt>
      <trkpt lat="38.6961" lon="35.11673">
        <ele>1270.584243</ele>
        <time>2021-12-19T10:46:14.995Z</time>
      </trkpt>
      <trkpt lat="38.69675" lon="35.11378">
        <ele>1270.595558</ele>
        <time>2021-12-19T10:47:18.016Z</time>
      </trkpt>
      <trkpt lat="38.69736" lon="35.11093">
        <ele>1269.584058</ele>
        <time>2021-12-19T10:48:18.003Z</time>
      </trkpt>
      <trkpt lat="38.69804" lon="35.1079">
        <ele>1264.339414</ele>
        <time>2021-12-19T10:49:20.995Z</time>
      </trkpt>
      <trkpt lat="38.69884" lon="35.10504">
        <ele>1256.255534</ele>
        <time>2021-12-19T10:50:21.001Z</time>
      </trkpt>
      <trkpt lat="38.70015" lon="35.10279">
        <ele>1258.781161</ele>
        <time>2021-12-19T10:51:24.009Z</time>
      </trkpt>
      <trkpt lat="38.70181" lon="35.10125">
        <ele>1265.017612</ele>
        <time>2021-12-19T10:52:23.999Z</time>
      </trkpt>
      <trkpt lat="38.70371" lon="35.09954">
        <ele>1267.456804</ele>
        <time>2021-12-19T10:53:25.008Z</time>
      </trkpt>
      <trkpt lat="38.70553" lon="35.09793">
        <ele>1265.934433</ele>
        <time>2021-12-19T10:54:07.038Z</time>
      </trkpt>
      <trkpt lat="38.70734" lon="35.09637">
        <ele>1261.213363</ele>
        <time>2021-12-19T10:54:47.016Z</time>
      </trkpt>
      <trkpt lat="38.70939" lon="35.09451">
        <ele>1240.968727</ele>
        <time>2021-12-19T10:55:29.003Z</time>
      </trkpt>
      <trkpt lat="38.71134" lon="35.09279">
        <ele>1218.43596</ele>
        <time>2021-12-19T10:56:09.001Z</time>
      </trkpt>
      <trkpt lat="38.71362" lon="35.09076">
        <ele>1203.242456</ele>
        <time>2021-12-19T10:56:51.010Z</time>
      </trkpt>
      <trkpt lat="38.71586" lon="35.08878">
        <ele>1191.116155</ele>
        <time>2021-12-19T10:57:31.010Z</time>
      </trkpt>
      <trkpt lat="38.71803" lon="35.08681">
        <ele>1181.836232</ele>
        <time>2021-12-19T10:58:13.011Z</time>
      </trkpt>
      <trkpt lat="38.72005" lon="35.08488">
        <ele>1166.34829</ele>
        <time>2021-12-19T10:58:53.010Z</time>
      </trkpt>
      <trkpt lat="38.72182" lon="35.08189">
        <ele>1145.703572</ele>
        <time>2021-12-19T10:59:35.003Z</time>
      </trkpt>
      <trkpt lat="38.723" lon="35.07951">
        <ele>1142.607939</ele>
        <time>2021-12-19T11:00:15.007Z</time>
      </trkpt>
      <trkpt lat="38.72414" lon="35.07723">
        <ele>1147.114196</ele>
        <time>2021-12-19T11:00:59.000Z</time>
      </trkpt>
      <trkpt lat="38.72522" lon="35.07507">
        <ele>1143.986828</ele>
        <time>2021-12-19T11:01:40.003Z</time>
      </trkpt>
      <trkpt lat="38.72635" lon="35.07276">
        <ele>1140.587502</ele>
        <time>2021-12-19T11:02:22.018Z</time>
      </trkpt>
      <trkpt lat="38.72752" lon="35.07038">
        <ele>1134.476066</ele>
        <time>2021-12-19T11:03:08.002Z</time>
      </trkpt>
      <trkpt lat="38.72873" lon="35.06796">
        <ele>1132.017793</ele>
        <time>2021-12-19T11:03:56.014Z</time>
      </trkpt>
      <trkpt lat="38.72993" lon="35.06556">
        <ele>1123.475712</ele>
        <time>2021-12-19T11:04:42.008Z</time>
      </trkpt>
      <trkpt lat="38.73112" lon="35.06314">
        <ele>1113.592758</ele>
        <time>2021-12-19T11:05:23.999Z</time>
      </trkpt>
      <trkpt lat="38.73245" lon="35.06044">
        <ele>1102.344593</ele>
        <time>2021-12-19T11:06:04.012Z</time>
      </trkpt>
      <trkpt lat="38.73388" lon="35.05755">
        <ele>1090.979607</ele>
        <time>2021-12-19T11:06:46.000Z</time>
      </trkpt>
      <trkpt lat="38.73526" lon="35.05475">
        <ele>1087.330459</ele>
        <time>2021-12-19T11:07:26.044Z</time>
      </trkpt>
      <trkpt lat="38.73644" lon="35.05239">
        <ele>1089.083655</ele>
        <time>2021-12-19T11:08:13.998Z</time>
      </trkpt>
      <trkpt lat="38.73762" lon="35.05017">
        <ele>1087.671739</ele>
        <time>2021-12-19T11:08:54.039Z</time>
      </trkpt>
      <trkpt lat="38.7386" lon="35.04759">
        <ele>1082.521103</ele>
        <time>2021-12-19T11:09:36.009Z</time>
      </trkpt>
      <trkpt lat="38.73862" lon="35.04361">
        <ele>1072.611436</ele>
        <time>2021-12-19T11:10:16.005Z</time>
      </trkpt>
      <trkpt lat="38.73855" lon="35.04035">
        <ele>1064.961233</ele>
        <time>2021-12-19T11:10:58.001Z</time>
      </trkpt>
      <trkpt lat="38.73896" lon="35.03779">
        <ele>1067.64864</ele>
        <time>2021-12-19T11:11:38.004Z</time>
      </trkpt>
      <trkpt lat="38.73945" lon="35.03508">
        <ele>1064.491185</ele>
        <time>2021-12-19T11:12:19.999Z</time>
      </trkpt>
      <trkpt lat="38.73993" lon="35.03255">
        <ele>1064.741723</ele>
        <time>2021-12-19T11:13:00.005Z</time>
      </trkpt>
      <trkpt lat="38.74021" lon="35.02973">
        <ele>1065.449899</ele>
        <time>2021-12-19T11:13:42.024Z</time>
      </trkpt>
      <trkpt lat="38.74041" lon="35.02714">
        <ele>1066.515268</ele>
        <time>2021-12-19T11:14:22.004Z</time>
      </trkpt>
      <trkpt lat="38.74064" lon="35.02443">
        <ele>1065.730004</ele>
        <time>2021-12-19T11:15:06.999Z</time>
      </trkpt>
      <trkpt lat="38.74089" lon="35.02197">
        <ele>1065.825917</ele>
        <time>2021-12-19T11:15:47.005Z</time>
      </trkpt>
      <trkpt lat="38.74115" lon="35.01942">
        <ele>1065.666039</ele>
        <time>2021-12-19T11:16:29.015Z</time>
      </trkpt>
      <trkpt lat="38.74137" lon="35.0169">
        <ele>1065.452113</ele>
        <time>2021-12-19T11:17:09.016Z</time>
      </trkpt>
      <trkpt lat="38.74164" lon="35.01377">
        <ele>1057.122191</ele>
        <time>2021-12-19T11:17:51.014Z</time>
      </trkpt>
      <trkpt lat="38.74195" lon="35.00971">
        <ele>1042.593482</ele>
        <time>2021-12-19T11:18:31.015Z</time>
      </trkpt>
      <trkpt lat="38.74223" lon="35.00666">
        <ele>1041.639549</ele>
        <time>2021-12-19T11:19:31.041Z</time>
      </trkpt>
      <trkpt lat="38.74211" lon="35.00407">
        <ele>1050.503156</ele>
        <time>2021-12-19T11:20:41.017Z</time>
      </trkpt>
      <trkpt lat="38.74103" lon="35.00123">
        <ele>1051.259563</ele>
        <time>2021-12-19T11:21:23.054Z</time>
      </trkpt>
      <trkpt lat="38.73947" lon="34.99799">
        <ele>1031.211776</ele>
        <time>2021-12-19T11:22:05.026Z</time>
      </trkpt>
      <trkpt lat="38.73879" lon="34.99503">
        <ele>1028.57241</ele>
        <time>2021-12-19T11:22:52.018Z</time>
      </trkpt>
      <trkpt lat="38.73861" lon="34.99232">
        <ele>1040.068188</ele>
        <time>2021-12-19T11:24:05.014Z</time>
      </trkpt>
      <trkpt lat="38.73819" lon="34.98978">
        <ele>1047.723806</ele>
        <time>2021-12-19T11:25:15.012Z</time>
      </trkpt>
      <trkpt lat="38.73752" lon="34.98686">
        <ele>1043.554711</ele>
        <time>2021-12-19T11:26:00.002Z</time>
      </trkpt>
      <trkpt lat="38.7367" lon="34.98354">
        <ele>1035.727608</ele>
        <time>2021-12-19T11:26:39.996Z</time>
      </trkpt>
      <trkpt lat="38.73579" lon="34.97996">
        <ele>1025.885009</ele>
        <time>2021-12-19T11:27:22.009Z</time>
      </trkpt>
      <trkpt lat="38.73513" lon="34.97701">
        <ele>1018.764782</ele>
        <time>2021-12-19T11:28:02.006Z</time>
      </trkpt>
      <trkpt lat="38.73424" lon="34.97447">
        <ele>1020.324899</ele>
        <time>2021-12-19T11:29:05.035Z</time>
      </trkpt>
      <trkpt lat="38.73326" lon="34.9723">
        <ele>1024.809081</ele>
        <time>2021-12-19T11:30:08.025Z</time>
      </trkpt>
      <trkpt lat="38.73213" lon="34.97003">
        <ele>1029.57705</ele>
        <time>2021-12-19T11:31:11.058Z</time>
      </trkpt>
      <trkpt lat="38.73093" lon="34.96753">
        <ele>1032.229408</ele>
        <time>2021-12-19T11:32:09.003Z</time>
      </trkpt>
      <trkpt lat="38.72968" lon="34.96492">
        <ele>1029.947654</ele>
        <time>2021-12-19T11:33:03.010Z</time>
      </trkpt>
      <trkpt lat="38.72857" lon="34.96262">
        <ele>1028.994855</ele>
        <time>2021-12-19T11:33:50.008Z</time>
      </trkpt>
      <trkpt lat="38.72741" lon="34.96017">
        <ele>1025.319666</ele>
        <time>2021-12-19T11:34:40.004Z</time>
      </trkpt>
      <trkpt lat="38.72631" lon="34.95776">
        <ele>1022.624013</ele>
        <time>2021-12-19T11:35:28.010Z</time>
      </trkpt>
      <trkpt lat="38.72516" lon="34.9554">
        <ele>1022.975951</ele>
        <time>2021-12-19T11:36:16.005Z</time>
      </trkpt>
      <trkpt lat="38.72397" lon="34.95288">
        <ele>1022.001258</ele>
        <time>2021-12-19T11:37:08.021Z</time>
      </trkpt>
      <trkpt lat="38.72271" lon="34.95024">
        <ele>1017.206739</ele>
        <time>2021-12-19T11:38:02.038Z</time>
      </trkpt>
      <trkpt lat="38.72143" lon="34.94761">
        <ele>1017.728636</ele>
        <time>2021-12-19T11:39:02.014Z</time>
      </trkpt>
      <trkpt lat="38.72023" lon="34.94511">
        <ele>1022.780102</ele>
        <time>2021-12-19T11:40:05.012Z</time>
      </trkpt>
      <trkpt lat="38.71908" lon="34.94279">
        <ele>1028.650747</ele>
        <time>2021-12-19T11:41:05.024Z</time>
      </trkpt>
      <trkpt lat="38.71786" lon="34.9403">
        <ele>1029.409284</ele>
        <time>2021-12-19T11:42:08.061Z</time>
      </trkpt>
      <trkpt lat="38.71673" lon="34.93788">
        <ele>1029.684144</ele>
        <time>2021-12-19T11:43:08.011Z</time>
      </trkpt>
      <trkpt lat="38.71559" lon="34.93547">
        <ele>1031.189904</ele>
        <time>2021-12-19T11:44:11.038Z</time>
      </trkpt>
      <trkpt lat="38.71442" lon="34.93305">
        <ele>1029.700506</ele>
        <time>2021-12-19T11:45:03.011Z</time>
      </trkpt>
      <trkpt lat="38.71363" lon="34.92983">
        <ele>1025.187999</ele>
        <time>2021-12-19T11:45:45.029Z</time>
      </trkpt>
      <trkpt lat="38.71297" lon="34.92656">
        <ele>1012.044572</ele>
        <time>2021-12-19T11:46:18.022Z</time>
      </trkpt>
      <trkpt lat="38.71264" lon="34.92402">
        <ele>1000.813089</ele>
        <time>2021-12-19T11:46:39.024Z</time>
      </trkpt>
      <trkpt lat="38.71241" lon="34.92022">
        <ele>989.047954</ele>
        <time>2021-12-19T11:47:18.047Z</time>
      </trkpt>
      <trkpt lat="38.71219" lon="34.91682">
        <ele>982.897654</ele>
        <time>2021-12-19T11:48:00.004Z</time>
      </trkpt>
      <trkpt lat="38.71223" lon="34.91459">
        <ele>988.050153</ele>
        <time>2021-12-19T12:12:04.023Z</time>
      </trkpt>
      <trkpt lat="38.71227" lon="34.91151">
        <ele>992.977238</ele>
        <time>2021-12-19T12:13:08.004Z</time>
      </trkpt>
      <trkpt lat="38.71236" lon="34.90887">
        <ele>995.867369</ele>
        <time>2021-12-19T12:14:08.011Z</time>
      </trkpt>
      <trkpt lat="38.71188" lon="34.90605">
        <ele>998.983775</ele>
        <time>2021-12-19T12:15:15.046Z</time>
      </trkpt>
      <trkpt lat="38.71143" lon="34.90346">
        <ele>1006.949126</ele>
        <time>2021-12-19T12:16:34.042Z</time>
      </trkpt>
      <trkpt lat="38.71112" lon="34.90102">
        <ele>1016.512256</ele>
        <time>2021-12-19T12:18:08.024Z</time>
      </trkpt>
      <trkpt lat="38.71078" lon="34.89845">
        <ele>1025.17745</ele>
        <time>2021-12-19T12:20:09.020Z</time>
      </trkpt>
      <trkpt lat="38.71048" lon="34.89595">
        <ele>1033.596046</ele>
        <time>2021-12-19T12:21:49.028Z</time>
      </trkpt>
      <trkpt lat="38.71012" lon="34.89317">
        <ele>1040.287561</ele>
        <time>2021-12-19T12:23:11.022Z</time>
      </trkpt>
      <trkpt lat="38.70961" lon="34.89057">
        <ele>1037.00922</ele>
        <time>2021-12-19T12:25:06.058Z</time>
      </trkpt>
      <trkpt lat="38.70892" lon="34.8879">
        <ele>1038.226443</ele>
        <time>2021-12-19T12:26:09.030Z</time>
      </trkpt>
      <trkpt lat="38.70827" lon="34.88532">
        <ele>1045.917995</ele>
        <time>2021-12-19T12:27:25.026Z</time>
      </trkpt>
      <trkpt lat="38.70807" lon="34.88255">
        <ele>1059.330447</ele>
        <time>2021-12-19T12:28:48.037Z</time>
      </trkpt>
      <trkpt lat="38.70806" lon="34.87982">
        <ele>1056.678071</ele>
        <time>2021-12-19T12:29:44.024Z</time>
      </trkpt>
      <trkpt lat="38.70784" lon="34.87641">
        <ele>1041.974842</ele>
        <time>2021-12-19T12:30:26.035Z</time>
      </trkpt>
      <trkpt lat="38.70618" lon="34.87325">
        <ele>1026.82836</ele>
        <time>2021-12-19T12:31:04.075Z</time>
      </trkpt>
      <trkpt lat="38.70451" lon="34.87121">
        <ele>1018.146212</ele>
        <time>2021-12-19T12:31:29.016Z</time>
      </trkpt>
      <trkpt lat="38.70256" lon="34.86883">
        <ele>1015.996868</ele>
        <time>2021-12-19T12:32:06.034Z</time>
      </trkpt>
      <trkpt lat="38.70101" lon="34.86695">
        <ele>1015.53861</ele>
        <time>2021-12-19T12:32:48.028Z</time>
      </trkpt>
      <trkpt lat="38.70039" lon="34.86431">
        <ele>1014.00174</ele>
        <time>2021-12-19T12:33:28.044Z</time>
      </trkpt>
      <trkpt lat="38.70103" lon="34.86094">
        <ele>1012.645193</ele>
        <time>2021-12-19T12:34:10.041Z</time>
      </trkpt>
      <trkpt lat="38.70247" lon="34.85804">
        <ele>1004.456598</ele>
        <time>2021-12-19T12:34:50.040Z</time>
      </trkpt>
      <trkpt lat="38.70446" lon="34.85588">
        <ele>998.123118</ele>
        <time>2021-12-19T12:35:33.002Z</time>
      </trkpt>
      <trkpt lat="38.70457" lon="34.85323">
        <ele>1001.099708</ele>
        <time>2021-12-19T12:37:10.029Z</time>
      </trkpt>
      <trkpt lat="38.70402" lon="34.85009">
        <ele>1002.552155</ele>
        <time>2021-12-19T12:37:52.045Z</time>
      </trkpt>
      <trkpt lat="38.70364" lon="34.84736">
        <ele>998.021246</ele>
        <time>2021-12-19T12:38:33.071Z</time>
      </trkpt>
      <trkpt lat="38.70363" lon="34.84468">
        <ele>999.673573</ele>
        <time>2021-12-19T12:39:15.028Z</time>
      </trkpt>
      <trkpt lat="38.7036" lon="34.84236">
        <ele>994.589231</ele>
        <time>2021-12-19T12:40:20.028Z</time>
      </trkpt>
      <trkpt lat="38.70135" lon="34.84233">
        <ele>993.051681</ele>
        <time>2021-12-19T12:41:25.066Z</time>
      </trkpt>
      <trkpt lat="38.69931" lon="34.8422">
        <ele>999.029542</ele>
        <time>2021-12-19T12:42:29.035Z</time>
      </trkpt>
      <trkpt lat="38.69717" lon="34.84202">
        <ele>1001.539372</ele>
        <time>2021-12-19T12:43:40.010Z</time>
      </trkpt>
      <trkpt lat="38.69516" lon="34.84191">
        <ele>1002.716354</ele>
        <time>2021-12-19T12:44:46.059Z</time>
      </trkpt>
      <trkpt lat="38.69299" lon="34.84171">
        <ele>1002.354704</ele>
        <time>2021-12-19T12:45:58.031Z</time>
      </trkpt>
      <trkpt lat="38.69092" lon="34.84151">
        <ele>1007.641716</ele>
        <time>2021-12-19T12:47:06.045Z</time>
      </trkpt>
      <trkpt lat="38.68874" lon="34.84114">
        <ele>1015.675048</ele>
        <time>2021-12-19T12:48:20.029Z</time>
      </trkpt>
      <trkpt lat="38.68667" lon="34.84073">
        <ele>1018.941019</ele>
        <time>2021-12-19T12:49:32.053Z</time>
      </trkpt>
      <trkpt lat="38.68443" lon="34.8403">
        <ele>1026.157163</ele>
        <time>2021-12-19T12:50:50.061Z</time>
      </trkpt>
      <trkpt lat="38.68236" lon="34.84005">
        <ele>1025.091991</ele>
        <time>2021-12-19T12:52:04.011Z</time>
      </trkpt>
      <trkpt lat="38.68019" lon="34.83955">
        <ele>1028.60383</ele>
        <time>2021-12-19T12:53:21.011Z</time>
      </trkpt>
      <trkpt lat="38.67809" lon="34.8391">
        <ele>1033.061972</ele>
        <time>2021-12-19T12:54:37.071Z</time>
      </trkpt>
      <trkpt lat="38.67585" lon="34.83914">
        <ele>1042.118232</ele>
        <time>2021-12-19T12:56:01.062Z</time>
      </trkpt>
      <trkpt lat="38.67381" lon="34.83922">
        <ele>1045.113964</ele>
        <time>2021-12-19T12:57:22.048Z</time>
      </trkpt>
      <trkpt lat="38.67182" lon="34.83835">
        <ele>1050.044493</ele>
        <time>2021-12-19T12:58:43.028Z</time>
      </trkpt>
      <trkpt lat="38.67003" lon="34.83686">
        <ele>1054.068569</ele>
        <time>2021-12-19T13:00:02.026Z</time>
      </trkpt>
      <trkpt lat="38.66844" lon="34.83536">
        <ele>1056.973887</ele>
        <time>2021-12-19T13:01:07.038Z</time>
      </trkpt>
      <trkpt lat="38.6666" lon="34.83385">
        <ele>1066.169499</ele>
        <time>2021-12-19T13:02:40.053Z</time>
      </trkpt>
      <trkpt lat="38.66483" lon="34.83274">
        <ele>1077.078968</ele>
        <time>2021-12-19T13:04:23.041Z</time>
      </trkpt>
      <trkpt lat="38.66272" lon="34.83261">
        <ele>1080.173322</ele>
        <time>2021-12-19T13:06:08.051Z</time>
      </trkpt>
      <trkpt lat="38.66077" lon="34.83332">
        <ele>1084.258795</ele>
        <time>2021-12-19T13:07:43.042Z</time>
      </trkpt>
      <trkpt lat="38.6587" lon="34.83406">
        <ele>1090.229415</ele>
        <time>2021-12-19T13:09:15.049Z</time>
      </trkpt>
      <trkpt lat="38.6569" lon="34.83517">
        <ele>1093.470376</ele>
        <time>2021-12-19T13:10:31.031Z</time>
      </trkpt>
      <trkpt lat="38.655" lon="34.83627">
        <ele>1095.152899</ele>
        <time>2021-12-19T13:11:37.044Z</time>
      </trkpt>
      <trkpt lat="38.65294" lon="34.83649">
        <ele>1100.684591</ele>
        <time>2021-12-19T13:12:46.037Z</time>
      </trkpt>
      <trkpt lat="38.6509" lon="34.83579">
        <ele>1109.940423</ele>
        <time>2021-12-19T13:14:15.056Z</time>
      </trkpt>
      <trkpt lat="38.64905" lon="34.8347">
        <ele>1115.591779</ele>
        <time>2021-12-19T13:15:44.044Z</time>
      </trkpt>
      <trkpt lat="38.64722" lon="34.83355">
        <ele>1122.968453</ele>
        <time>2021-12-19T13:17:11.048Z</time>
      </trkpt>
      <trkpt lat="38.64535" lon="34.8325">
        <ele>1127.680159</ele>
        <time>2021-12-19T13:18:36.042Z</time>
      </trkpt>
      <trkpt lat="38.64357" lon="34.83106">
        <ele>1138.596388</ele>
        <time>2021-12-19T13:20:05.045Z</time>
      </trkpt>
      <trkpt lat="38.64404" lon="34.82896">
        <ele>1142.635972</ele>
        <time>2021-12-19T13:21:37.044Z</time>
      </trkpt>
      <trkpt lat="38.64235" lon="34.82825">
        <ele>1144.892088</ele>
        <time>2021-12-19T13:23:11.059Z</time>
      </trkpt>
      <trkpt lat="38.6419" lon="34.82744">
        <ele>1144.892088</ele>
        <time>2021-12-19T13:34:39.478Z</time>
      </trkpt>
    </trkseg>
  </trk>
</gpx>